Time;durP1;ratioP1;P1;durP2;ratioP2;P2;SDS_P1;SDS_P2;PMS_P1;PMS_P2;Temp;Humidity;BMP_temperature;BMP_pressure;BME280_temperature;BME280_humidity;BME280_pressure;Samples;Min_cycle;Max_cycle;Signal;HPM_P1;HPM_P2
2023/04/09 00:01:47;;;;;;;28.50;16.80;;;9.10;99.90;;;;;;4974885;28;20098;-67
2023/04/09 00:04:13;;;;;;;27.98;16.17;;;9.20;99.90;;;;;;4974825;28;20047;-67
2023/04/09 00:06:38;;;;;;;30.05;17.45;;;9.10;99.90;;;;;;4975107;28;20046;-67
2023/04/09 00:09:04;;;;;;;25.75;15.50;;;9.10;99.90;;;;;;4974671;28;20051;-67
2023/04/09 00:11:30;;;;;;;25.02;15.43;;;9.00;99.90;;;;;;4957510;28;20047;-67
2023/04/09 00:13:57;;;;;;;27.80;15.93;;;9.10;99.90;;;;;;4957690;28;20054;-68
2023/04/09 00:16:23;;;;;;;27.60;16.20;;;9.00;99.90;;;;;;4975556;28;20378;-67
2023/04/09 00:18:49;;;;;;;26.60;15.48;;;9.00;99.90;;;;;;4957491;28;20050;-67
2023/04/09 00:21:15;;;;;;;25.75;16.05;;;9.20;99.90;;;;;;4974699;28;20046;-67
2023/04/09 00:23:41;;;;;;;23.60;15.40;;;9.00;99.90;;;;;;4974701;28;20392;-67
2023/04/09 00:26:07;;;;;;;25.27;15.13;;;9.10;99.90;;;;;;4974330;28;20501;-67
2023/04/09 00:28:34;;;;;;;22.58;14.77;;;9.00;99.90;;;;;;4974543;28;20058;-67
2023/04/09 00:31:01;;;;;;;25.33;16.17;;;9.00;99.90;;;;;;4975406;28;20054;-67
2023/04/09 00:33:26;;;;;;;24.50;15.20;;;9.00;99.90;;;;;;4974634;28;20483;-67
2023/04/09 00:35:52;;;;;;;27.63;15.65;;;9.00;99.90;;;;;;4975842;28;20086;-67
2023/04/09 00:38:18;;;;;;;27.00;15.85;;;9.00;99.90;;;;;;4978442;28;20050;-67
2023/04/09 00:40:48;;;;;;;26.70;16.48;;;9.00;99.90;;;;;;4978476;28;20047;-67
2023/04/09 00:43:14;;;;;;;26.02;16.45;;;9.00;99.90;;;;;;4961694;28;20055;-67
2023/04/09 00:45:40;;;;;;;28.20;15.10;;;9.00;99.90;;;;;;4961130;28;20125;-67
2023/04/09 00:48:07;;;;;;;25.63;16.10;;;9.00;99.90;;;;;;4978538;28;20130;-67
2023/04/09 00:50:33;;;;;;;27.92;15.88;;;9.00;99.90;;;;;;4961519;28;20366;-67
2023/04/09 00:52:59;;;;;;;24.15;15.38;;;9.00;99.90;;;;;;4978224;28;20042;-67
2023/04/09 00:55:25;;;;;;;26.25;15.10;;;9.00;99.90;;;;;;4978204;28;20129;-67
2023/04/09 00:57:51;;;;;;;24.17;15.15;;;9.00;99.90;;;;;;4978434;28;20066;-67
2023/04/09 01:00:17;;;;;;;24.50;15.57;;;9.00;99.90;;;;;;4978081;28;20051;-67
2023/04/09 01:02:43;;;;;;;24.52;15.07;;;9.00;99.90;;;;;;4978056;28;20058;-67
2023/04/09 01:05:10;;;;;;;23.80;15.07;;;9.00;99.90;;;;;;4978018;28;20042;-67
2023/04/09 01:08:06;;;;;;;25.33;14.85;;;9.00;99.90;;;;;;4977892;28;20054;-68
2023/04/09 01:10:41;;;;;;;29.25;16.00;;;9.00;99.90;;;;;;4977931;28;20047;-68
2023/04/09 01:13:18;;;;;;;27.70;15.63;;;9.00;99.90;;;;;;4977852;28;20054;-67
2023/04/09 01:15:52;;;;;;;24.85;15.15;;;9.00;99.90;;;;;;4961690;28;20432;-67
2023/04/09 01:18:22;;;;;;;24.60;15.38;;;9.00;99.90;;;;;;4961058;28;20050;-67
2023/04/09 01:20:56;;;;;;;25.00;15.63;;;9.00;99.90;;;;;;4977750;28;20501;-67
2023/04/09 01:23:38;;;;;;;25.40;15.57;;;8.90;99.90;;;;;;4977745;28;20090;-67
2023/04/09 01:26:14;;;;;;;26.02;15.55;;;8.90;99.90;;;;;;4977691;28;20058;-67
2023/04/09 01:28:43;;;;;;;24.52;15.80;;;8.90;99.90;;;;;;4978099;28;20047;-67
2023/04/09 01:31:12;;;;;;;26.20;15.52;;;8.90;99.90;;;;;;4978069;28;20125;-67
2023/04/09 01:33:39;;;;;;;25.52;14.88;;;8.90;99.90;;;;;;4977510;28;20567;-67
2023/04/09 01:36:06;;;;;;;25.80;14.95;;;8.90;99.90;;;;;;4978017;28;20382;-67
2023/04/09 01:38:35;;;;;;;24.67;14.60;;;8.90;99.90;;;;;;4977421;28;20054;-67
2023/04/09 01:41:02;;;;;;;26.83;15.52;;;8.90;99.90;;;;;;4977404;28;20046;-67
2023/04/09 01:43:29;;;;;;;28.88;16.65;;;9.00;99.90;;;;;;4977322;28;20057;-67
2023/04/09 01:45:55;;;;;;;27.98;17.17;;;8.90;99.90;;;;;;4960020;28;20051;-68
2023/04/09 01:48:22;;;;;;;33.05;18.88;;;8.90;99.90;;;;;;4976967;28;20042;-67
2023/04/09 01:50:49;;;;;;;31.30;18.98;;;8.90;99.90;;;;;;4977182;28;20050;-68
2023/04/09 01:53:15;;;;;;;35.75;19.50;;;9.10;99.90;;;;;;4960928;28;20053;-68
2023/04/09 01:55:41;;;;;;;34.35;19.83;;;8.90;99.90;;;;;;4977907;28;20094;-67
2023/04/09 01:58:06;;;;;;;35.03;20.38;;;8.90;99.90;;;;;;4976826;28;20054;-68
2023/04/09 02:00:39;;;;;;;35.65;21.20;;;8.90;99.90;;;;;;4977025;28;20134;-67
2023/04/09 02:03:38;;;;;;;38.42;21.63;;;8.90;99.90;;;;;;4977089;28;20051;-67
2023/04/09 02:06:19;;;;;;;40.42;20.75;;;8.90;99.90;;;;;;4977124;28;20459;-68
2023/04/09 02:08:46;;;;;;;35.55;20.40;;;8.80;99.90;;;;;;4977345;28;20381;-68
2023/04/09 02:11:14;;;;;;;32.50;20.27;;;8.90;99.90;;;;;;4960009;28;20047;-68
2023/04/09 02:13:41;;;;;;;35.00;21.00;;;8.90;99.90;;;;;;4976772;28;20046;-67
2023/04/09 02:16:12;;;;;;;34.53;19.95;;;8.90;99.90;;;;;;4959833;28;20456;-68
2023/04/09 02:18:37;;;;;;;34.92;20.33;;;8.90;99.90;;;;;;4977059;28;20051;-68
2023/04/09 02:21:04;;;;;;;39.80;21.60;;;8.90;99.90;;;;;;4959879;28;20055;-67
2023/04/09 02:23:32;;;;;;;34.35;20.73;;;8.90;99.90;;;;;;4976617;28;20093;-67
2023/04/09 02:25:58;;;;;;;38.08;20.75;;;8.90;99.90;;;;;;4976610;28;20082;-67
2023/04/09 02:28:24;;;;;;;35.38;21.63;;;8.90;99.90;;;;;;4976467;28;20089;-68
2023/04/09 02:30:49;;;;;;;34.63;20.73;;;8.80;99.90;;;;;;4976453;28;20086;-67
2023/04/09 02:33:15;;;;;;;37.53;21.00;;;8.90;99.90;;;;;;4976459;28;20046;-67
2023/04/09 02:35:41;;;;;;;34.78;21.25;;;8.90;99.90;;;;;;4959297;28;20493;-67
2023/04/09 02:38:12;;;;;;;35.92;20.27;;;8.80;99.90;;;;;;4976463;28;20053;-68
2023/04/09 02:40:40;;;;;;;34.33;20.17;;;8.80;99.90;;;;;;4959680;28;20047;-67
2023/04/09 02:43:06;;;;;;;37.92;22.08;;;9.00;99.90;;;;;;4976814;28;20058;-67
2023/04/09 02:45:31;;;;;;;37.83;20.65;;;8.80;99.90;;;;;;4977033;28;20424;-67
2023/04/09 02:47:57;;;;;;;37.67;21.58;;;8.90;99.90;;;;;;4976117;28;20043;-68
2023/04/09 02:50:23;;;;;;;37.88;21.42;;;8.90;99.90;;;;;;4976080;28;20503;-67
2023/04/09 02:52:48;;;;;;;36.70;21.75;;;8.80;99.90;;;;;;4959385;28;20097;-68
2023/04/09 02:55:14;;;;;;;34.20;20.35;;;8.80;99.90;;;;;;4958928;28;20238;-68
2023/04/09 02:57:40;;;;;;;38.65;22.30;;;8.80;99.90;;;;;;4975491;28;20063;-68
2023/04/09 03:00:07;;;;;;;34.58;21.00;;;8.80;99.90;;;;;;4975479;28;20138;-68
2023/04/09 03:02:33;;;;;;;40.35;21.67;;;8.80;99.90;;;;;;4975890;28;20078;-67
2023/04/09 03:04:58;;;;;;;37.40;21.10;;;8.80;99.90;;;;;;4976130;28;20161;-67
2023/04/09 03:07:24;;;;;;;37.47;21.08;;;8.80;99.90;;;;;;4975740;28;20050;-67
2023/04/09 03:09:50;;;;;;;36.22;21.08;;;8.70;99.90;;;;;;4975678;28;20043;-67
2023/04/09 03:12:15;;;;;;;34.05;20.95;;;8.80;99.90;;;;;;4976000;28;20042;-68
2023/04/09 03:14:41;;;;;;;37.15;21.55;;;8.80;99.90;;;;;;4976495;28;20054;-68
2023/04/09 03:17:07;;;;;;;36.63;20.58;;;8.80;99.90;;;;;;4975929;28;20248;-68
2023/04/09 03:19:33;;;;;;;38.55;21.90;;;8.80;99.90;;;;;;4975593;28;20042;-68
2023/04/09 03:21:58;;;;;;;37.72;21.38;;;8.70;99.90;;;;;;4976329;28;20057;-68
2023/04/09 03:24:24;;;;;;;37.45;22.20;;;8.70;99.90;;;;;;4959249;28;20043;-67
2023/04/09 03:26:50;;;;;;;38.65;22.67;;;8.70;99.90;;;;;;4959173;28;20418;-67
2023/04/09 03:29:15;;;;;;;34.83;21.83;;;8.70;99.90;;;;;;4943013;28;20046;-68
2023/04/09 03:31:41;;;;;;;33.45;21.45;;;8.70;99.90;;;;;;4958314;28;20050;-68
2023/04/09 03:34:07;;;;;;;38.08;22.15;;;8.70;99.90;;;;;;4975401;28;20058;-68
2023/04/09 03:36:32;;;;;;;38.90;23.05;;;8.70;99.90;;;;;;4975274;28;20104;-68
2023/04/09 03:38:59;;;;;;;38.17;21.33;;;8.70;99.90;;;;;;4958176;28;20166;-67
2023/04/09 03:41:25;;;;;;;37.58;21.13;;;8.70;99.90;;;;;;4975212;28;20133;-67
2023/04/09 03:43:51;;;;;;;39.22;23.13;;;8.60;99.90;;;;;;4975194;28;20499;-68
2023/04/09 03:46:17;;;;;;;37.30;21.98;;;8.70;99.90;;;;;;4975661;28;20185;-68
2023/04/09 03:48:43;;;;;;;39.90;22.75;;;8.70;99.90;;;;;;4974694;28;20365;-67
2023/04/09 03:51:16;;;;;;;40.20;23.02;;;8.70;99.90;;;;;;4975091;28;20057;-68
2023/04/09 03:53:43;;;;;;;38.90;23.73;;;8.60;99.90;;;;;;4975082;28;20039;-68
2023/04/09 03:56:09;;;;;;;51.60;25.10;;;8.60;99.90;;;;;;4974992;28;20050;-68
2023/04/09 03:58:35;;;;;;;43.72;24.55;;;8.60;99.90;;;;;;4974602;28;20142;-67
2023/04/09 04:01:02;;;;;;;42.08;23.90;;;8.60;99.90;;;;;;4974931;28;20113;-68
2023/04/09 04:03:28;;;;;;;37.28;23.25;;;8.60;99.90;;;;;;4957664;28;20054;-68
2023/04/09 04:05:59;;;;;;;38.83;24.17;;;8.60;99.90;;;;;;4974597;28;20043;-68
2023/04/09 04:08:25;;;;;;;45.40;25.48;;;8.70;99.90;;;;;;4958310;28;20144;-67
2023/04/09 04:10:50;;;;;;;40.55;24.23;;;8.60;99.90;;;;;;4974836;28;20082;-68
2023/04/09 04:13:16;;;;;;;41.33;25.08;;;8.50;99.90;;;;;;4941750;28;20461;-67
2023/04/09 04:15:42;;;;;;;44.05;25.52;;;8.50;99.90;;;;;;4975272;28;20457;-67
2023/04/09 04:18:10;;;;;;;40.80;24.13;;;8.50;99.90;;;;;;4974702;28;20138;-68
2023/04/09 04:20:37;;;;;;;39.85;24.80;;;8.60;99.90;;;;;;4974961;28;20089;-68
2023/04/09 04:23:03;;;;;;;47.63;26.08;;;8.50;99.90;;;;;;4974650;28;20051;-68
2023/04/09 04:25:29;;;;;;;45.60;25.95;;;8.70;99.90;;;;;;4974666;28;20058;-68
2023/04/09 04:27:55;;;;;;;42.42;25.35;;;8.50;99.90;;;;;;4974620;28;20082;-68
2023/04/09 04:30:21;;;;;;;40.47;26.23;;;8.50;99.90;;;;;;4975156;28;20500;-68
2023/04/09 04:32:48;;;;;;;49.15;28.33;;;8.50;99.90;;;;;;4974613;28;20055;-68
2023/04/09 04:35:13;;;;;;;48.03;29.67;;;8.50;99.90;;;;;;4974535;28;20047;-68
2023/04/09 04:37:39;;;;;;;53.45;31.35;;;8.40;99.90;;;;;;4974531;28;20050;-68
2023/04/09 04:40:08;;;;;;;57.20;32.80;;;8.40;99.90;;;;;;4956945;28;20409;-67
2023/04/09 04:42:34;;;;;;;58.00;34.28;;;8.40;99.90;;;;;;4974970;28;20142;-67
2023/04/09 04:45:00;;;;;;;56.10;34.42;;;8.40;99.90;;;;;;4974436;28;20054;-67
2023/04/09 04:47:26;;;;;;;60.45;35.42;;;8.40;99.90;;;;;;4957207;28;20051;-68
2023/04/09 04:49:52;;;;;;;56.13;33.45;;;8.30;99.90;;;;;;4957375;28;20054;-68
2023/04/09 04:52:17;;;;;;;57.25;33.60;;;8.30;99.90;;;;;;4974398;28;20055;-67
2023/04/09 04:54:43;;;;;;;54.40;34.20;;;8.50;99.90;;;;;;4974429;28;20182;-67
2023/04/09 04:57:09;;;;;;;57.72;36.55;;;8.40;99.90;;;;;;4974359;28;20555;-67
2023/04/09 04:59:39;;;;;;;57.72;35.00;;;8.30;99.90;;;;;;4974153;28;20059;-67
2023/04/09 05:02:07;;;;;;;53.83;33.10;;;8.40;99.90;;;;;;4956866;28;20097;-67
2023/04/09 05:04:33;;;;;;;59.88;34.70;;;8.20;99.90;;;;;;4973998;28;20054;-67
2023/04/09 05:06:59;;;;;;;59.00;35.45;;;8.20;99.90;;;;;;4974213;28;20453;-67
2023/04/09 05:09:25;;;;;;;60.10;35.88;;;8.10;99.90;;;;;;4974229;28;20051;-67
2023/04/09 05:11:50;;;;;;;65.60;37.53;;;8.10;99.90;;;;;;4974266;28;20047;-67
2023/04/09 05:14:16;;;;;;;59.67;36.17;;;8.00;99.90;;;;;;4974713;28;20078;-68
2023/04/09 05:16:42;;;;;;;63.60;38.25;;;8.00;99.90;;;;;;4974141;28;20046;-68
2023/04/09 05:19:07;;;;;;;62.25;36.42;;;8.00;99.90;;;;;;4957827;28;20051;-67
2023/04/09 05:21:33;;;;;;;59.95;36.83;;;8.20;99.90;;;;;;4975365;28;20130;-67
2023/04/09 05:23:59;;;;;;;60.13;36.45;;;8.00;99.90;;;;;;4944703;28;20092;-68
2023/04/09 05:26:25;;;;;;;60.63;36.72;;;8.00;99.90;;;;;;4977634;28;20490;-67
2023/04/09 05:28:51;;;;;;;68.70;37.63;;;8.00;99.90;;;;;;4977529;28;20046;-67
2023/04/09 05:31:17;;;;;;;64.90;38.28;;;8.00;99.90;;;;;;4977848;28;20043;-67
2023/04/09 05:33:43;;;;;;;61.30;36.15;;;8.10;99.90;;;;;;4978325;28;20046;-67
2023/04/09 05:36:17;;;;;;;62.42;36.65;;;8.10;99.90;;;;;;4977389;28;20503;-67
2023/04/09 05:38:43;;;;;;;59.75;35.65;;;8.10;99.90;;;;;;4977380;28;20051;-67
2023/04/09 05:41:09;;;;;;;58.55;36.60;;;8.10;99.90;;;;;;4977381;28;20093;-67
2023/04/09 05:43:35;;;;;;;60.00;37.03;;;8.10;99.90;;;;;;4960242;28;20090;-67
2023/04/09 05:46:01;;;;;;;61.55;36.53;;;8.20;99.90;;;;;;4977299;28;20051;-68
2023/04/09 05:48:26;;;;;;;65.93;36.75;;;8.20;99.90;;;;;;4977173;28;20440;-67
2023/04/09 05:50:52;;;;;;;63.50;38.05;;;8.20;99.90;;;;;;4960140;28;20130;-67
2023/04/09 05:53:19;;;;;;;60.25;37.42;;;8.40;99.90;;;;;;4977676;28;20138;-67
2023/04/09 05:55:45;;;;;;;54.92;34.58;;;8.30;99.90;;;;;;4977746;28;20046;-67
2023/04/09 05:58:12;;;;;;;57.13;34.45;;;8.30;99.90;;;;;;4976998;28;20058;-67
2023/04/09 06:00:37;;;;;;;53.97;33.53;;;8.30;99.90;;;;;;4977041;28;20054;-67
2023/04/09 06:03:04;;;;;;;52.13;30.95;;;8.40;99.90;;;;;;4976985;28;20170;-67
2023/04/09 06:05:30;;;;;;;44.42;27.70;;;8.30;99.90;;;;;;4977458;28;20042;-67
2023/04/09 06:07:56;;;;;;;40.75;25.55;;;8.30;99.90;;;;;;4959560;28;20046;-67
2023/04/09 06:10:23;;;;;;;42.40;24.60;;;8.40;99.90;;;;;;4976786;28;20192;-67
2023/04/09 06:12:48;;;;;;;38.15;23.90;;;8.40;99.90;;;;;;4976812;28;20492;-68
2023/04/09 06:15:14;;;;;;;39.13;23.73;;;8.30;99.90;;;;;;4959515;28;20507;-67
2023/04/09 06:17:40;;;;;;;36.17;24.50;;;8.40;99.90;;;;;;4976730;28;20507;-68
2023/04/09 06:20:06;;;;;;;40.58;23.95;;;8.40;99.90;;;;;;4976687;28;20051;-68
2023/04/09 06:22:32;;;;;;;34.08;20.73;;;8.40;99.90;;;;;;4960155;28;20047;-67
2023/04/09 06:24:57;;;;;;;35.72;22.23;;;8.40;99.90;;;;;;4977136;28;20061;-67
2023/04/09 06:27:23;;;;;;;35.15;21.40;;;8.50;99.90;;;;;;4976747;28;20043;-68
2023/04/09 06:29:49;;;;;;;32.63;19.63;;;8.50;99.90;;;;;;4976726;28;20082;-67
2023/04/09 06:32:15;;;;;;;30.58;19.27;;;8.50;99.90;;;;;;4959145;28;20500;-67
2023/04/09 06:34:40;;;;;;;33.13;19.67;;;8.60;99.90;;;;;;4975921;28;20046;-68
2023/04/09 06:37:06;;;;;;;30.77;19.15;;;8.50;99.90;;;;;;4976341;28;20101;-67
2023/04/09 06:39:32;;;;;;;31.60;18.02;;;8.50;99.90;;;;;;4976195;28;20093;-67
2023/04/09 06:41:58;;;;;;;29.20;17.33;;;8.60;99.90;;;;;;4976240;28;20051;-68
2023/04/09 06:44:23;;;;;;;26.48;17.42;;;8.60;99.90;;;;;;4976713;28;20038;-67
2023/04/09 06:46:50;;;;;;;30.38;16.50;;;8.60;99.90;;;;;;4976161;28;20047;-67
2023/04/09 06:49:16;;;;;;;28.48;17.10;;;8.60;99.90;;;;;;4958850;28;20042;-67
2023/04/09 06:51:41;;;;;;;29.33;17.40;;;8.80;99.90;;;;;;4975961;28;20572;-67
2023/04/09 06:54:07;;;;;;;27.50;16.58;;;8.80;99.90;;;;;;4975983;28;20114;-68
2023/04/09 06:56:33;;;;;;;29.50;16.52;;;8.60;99.90;;;;;;4943800;28;20105;-68
2023/04/09 06:58:59;;;;;;;28.13;16.95;;;8.70;99.90;;;;;;4976143;28;20059;-68
2023/04/09 07:01:25;;;;;;;29.13;16.50;;;8.70;99.90;;;;;;4958634;28;20050;-67
2023/04/09 07:03:51;;;;;;;28.00;16.10;;;8.80;99.90;;;;;;4975881;28;20066;-67
2023/04/09 07:06:17;;;;;;;29.48;17.13;;;8.80;99.90;;;;;;4976599;28;20089;-67
2023/04/09 07:08:42;;;;;;;27.55;16.73;;;8.90;99.90;;;;;;4975631;28;20078;-67
2023/04/09 07:11:08;;;;;;;30.23;17.70;;;8.90;99.90;;;;;;4975711;28;20523;-68
2023/04/09 07:13:34;;;;;;;28.95;17.05;;;9.00;99.90;;;;;;4975658;28;20054;-67
2023/04/09 07:16:00;;;;;;;29.80;17.40;;;9.00;99.90;;;;;;4975294;28;20046;-68
2023/04/09 07:18:26;;;;;;;29.80;18.30;;;9.00;99.90;;;;;;4975883;28;20097;-67
2023/04/09 07:20:52;;;;;;;28.27;16.95;;;9.00;99.90;;;;;;4976050;28;20548;-67
2023/04/09 07:23:18;;;;;;;29.00;17.48;;;9.10;99.90;;;;;;4958424;28;20054;-67
2023/04/09 07:25:44;;;;;;;29.00;17.60;;;9.10;99.90;;;;;;4975449;28;20043;-67
2023/04/09 07:28:10;;;;;;;29.13;17.13;;;9.10;99.90;;;;;;4975380;28;20383;-67
2023/04/09 07:30:36;;;;;;;30.02;18.45;;;9.10;99.90;;;;;;4975356;28;20057;-67
2023/04/09 07:33:02;;;;;;;30.52;17.67;;;9.20;99.90;;;;;;4976157;28;20062;-67
2023/04/09 07:35:28;;;;;;;29.00;17.48;;;9.20;99.90;;;;;;4975295;28;20051;-67
2023/04/09 07:37:53;;;;;;;30.90;18.02;;;9.30;99.90;;;;;;4975280;28;20393;-68
2023/04/09 07:40:19;;;;;;;30.02;18.65;;;9.30;99.90;;;;;;4957857;28;20111;-67
2023/04/09 07:42:45;;;;;;;29.75;18.27;;;9.30;99.90;;;;;;4957959;28;20054;-67
2023/04/09 07:45:10;;;;;;;32.53;19.85;;;9.30;99.90;;;;;;4942018;28;20051;-67
2023/04/09 07:47:39;;;;;;;30.75;18.90;;;9.30;99.90;;;;;;4975043;28;20046;-66
2023/04/09 07:50:06;;;;;;;31.27;19.67;;;9.40;99.90;;;;;;4975445;28;20047;-66
2023/04/09 07:52:31;;;;;;;32.92;19.70;;;9.40;99.90;;;;;;4975159;28;20068;-66
2023/04/09 07:54:57;;;;;;;29.95;19.70;;;9.40;99.90;;;;;;4958492;28;20085;-66
2023/04/09 07:57:23;;;;;;;30.42;18.58;;;9.50;99.90;;;;;;4975852;28;20043;-66
2023/04/09 07:59:49;;;;;;;30.40;18.95;;;9.50;99.90;;;;;;4942026;28;20059;-67
2023/04/09 08:02:14;;;;;;;33.28;20.30;;;9.60;99.90;;;;;;4958776;28;20086;-66
2023/04/09 08:04:40;;;;;;;30.60;17.73;;;9.60;99.90;;;;;;4941955;28;20370;-66
2023/04/09 08:07:06;;;;;;;29.85;18.55;;;9.70;99.90;;;;;;4974910;28;20047;-67
2023/04/09 08:09:32;;;;;;;28.95;18.00;;;9.80;99.90;;;;;;4975338;28;20106;-67
2023/04/09 08:11:58;;;;;;;31.50;18.13;;;9.90;99.90;;;;;;4974846;28;20445;-67
2023/04/09 08:14:23;;;;;;;27.15;17.38;;;9.90;99.90;;;;;;4957786;28;20046;-66
2023/04/09 08:16:49;;;;;;;30.15;17.88;;;10.00;99.90;;;;;;4975994;28;20042;-66
2023/04/09 08:19:16;;;;;;;28.88;17.92;;;10.00;99.90;;;;;;4975346;28;20098;-66
2023/04/09 08:21:42;;;;;;;27.83;17.38;;;10.10;99.90;;;;;;4974773;28;20052;-66
2023/04/09 08:24:10;;;;;;;27.77;18.10;;;10.10;99.90;;;;;;4974779;28;20092;-66
2023/04/09 08:26:36;;;;;;;29.17;17.48;;;10.20;99.90;;;;;;4974472;28;20485;-66
2023/04/09 08:29:02;;;;;;;27.60;17.23;;;10.20;99.90;;;;;;4974700;28;20057;-66
2023/04/09 08:31:28;;;;;;;26.27;16.30;;;10.30;99.90;;;;;;4974764;28;20059;-66
2023/04/09 08:33:53;;;;;;;27.50;17.58;;;10.30;99.90;;;;;;4974670;28;20081;-66
2023/04/09 08:36:20;;;;;;;26.20;16.10;;;10.40;99.90;;;;;;4957491;28;20039;-66
2023/04/09 08:38:46;;;;;;;25.58;16.05;;;10.40;99.90;;;;;;4974570;28;20065;-66
2023/04/09 08:41:25;;;;;;;23.95;15.68;;;10.40;99.90;;;;;;4974666;28;20051;-66
2023/04/09 08:43:51;;;;;;;23.67;15.63;;;10.40;99.90;;;;;;4974630;28;20408;-67
2023/04/09 08:46:21;;;;;;;24.40;15.57;;;10.40;99.90;;;;;;4974609;28;20057;-66
2023/04/09 08:48:48;;;;;;;23.90;15.20;;;10.40;99.90;;;;;;4974443;28;20082;-66
2023/04/09 08:51:19;;;;;;;24.73;15.60;;;10.40;99.90;;;;;;4975296;28;20047;-67
2023/04/09 08:53:49;;;;;;;26.17;15.55;;;10.50;99.90;;;;;;4975127;28;20413;-67
2023/04/09 08:56:15;;;;;;;25.08;15.63;;;10.50;99.90;;;;;;4974993;28;20047;-66
2023/04/09 08:58:43;;;;;;;24.95;15.30;;;10.50;99.90;;;;;;4978300;28;20062;-67
2023/04/09 09:01:29;;;;;;;23.95;15.02;;;10.50;99.90;;;;;;4978209;28;20053;-67
2023/04/09 09:04:06;;;;;;;23.67;15.23;;;10.50;99.90;;;;;;4977883;28;20050;-67
2023/04/09 09:06:38;;;;;;;23.50;14.68;;;10.60;99.90;;;;;;4960816;28;20050;-67
2023/04/09 09:09:11;;;;;;;23.42;14.70;;;10.60;99.90;;;;;;4978438;28;20035;-67
2023/04/09 09:11:38;;;;;;;;;;;10.70;99.90;;;;;;4978438;28;20125;-66
2023/04/09 09:14:05;;;;;;;23.50;15.00;;;10.70;99.90;;;;;;4978755;28;20331;-66
2023/04/09 09:16:33;;;;;;;25.48;15.55;;;10.70;99.90;;;;;;4960847;28;20053;-66
2023/04/09 09:19:00;;;;;;;24.80;15.68;;;10.80;99.90;;;;;;4977871;28;20050;-66
2023/04/09 09:21:27;;;;;;;23.20;15.23;;;10.80;99.90;;;;;;4978637;28;20093;-66
2023/04/09 09:23:53;;;;;;;26.98;15.93;;;10.80;99.90;;;;;;4977767;28;20047;-67
2023/04/09 09:26:24;;;;;;;27.08;16.60;;;10.90;99.90;;;;;;4977825;28;20105;-66
2023/04/09 09:28:51;;;;;;;27.45;17.13;;;10.90;99.90;;;;;;4977650;28;20046;-67
2023/04/09 09:31:19;;;;;;;25.40;16.15;;;11.00;99.90;;;;;;4960442;28;20047;-67
2023/04/09 09:33:45;;;;;;;25.05;16.40;;;11.10;99.90;;;;;;4960544;28;20078;-66
2023/04/09 09:36:11;;;;;;;24.98;16.15;;;11.10;99.90;;;;;;4978091;28;20051;-66
2023/04/09 09:38:55;;;;;;;23.48;15.25;;;11.20;99.90;;;;;;4977468;28;20055;-66
2023/04/09 09:41:22;;;;;;;25.55;16.38;;;11.30;99.90;;;;;;4978100;28;20054;-67
2023/04/09 09:43:48;;;;;;;26.00;16.02;;;11.30;99.90;;;;;;4944047;28;20050;-66
2023/04/09 09:46:14;;;;;;;26.50;15.95;;;11.30;99.90;;;;;;4977645;28;20182;-66
2023/04/09 09:48:41;;;;;;;27.90;17.13;;;11.40;99.90;;;;;;4960001;28;20039;-66
2023/04/09 09:51:09;;;;;;;25.20;16.77;;;11.50;99.90;;;;;;4960139;28;20086;-68
2023/04/09 09:53:36;;;;;;;24.55;15.80;;;11.60;99.90;;;;;;4977089;28;20082;-67
2023/04/09 09:56:04;;;;;;;24.70;15.20;;;11.60;99.90;;;;;;4977509;28;20053;-67
2023/04/09 09:58:44;;;;;;;23.90;15.75;;;11.70;99.90;;;;;;4976920;28;20063;-67
2023/04/09 10:01:12;;;;;;;22.92;15.85;;;11.80;99.90;;;;;;4977075;28;20048;-67
2023/04/09 10:03:41;;;;;;;20.80;15.00;;;11.80;99.90;;;;;;4976895;28;20057;-68
2023/04/09 10:06:08;;;;;;;23.58;15.55;;;11.90;99.90;;;;;;4959627;28;20062;-67
2023/04/09 10:08:36;;;;;;;23.00;15.70;;;12.00;99.90;;;;;;4976678;28;20050;-69
2023/04/09 10:11:04;;;;;;;21.92;15.82;;;12.10;99.90;;;;;;4959799;28;20057;-66
2023/04/09 10:13:54;;;;;;;24.55;16.55;;;12.20;99.90;;;;;;4959604;28;20054;-66
2023/04/09 10:16:22;;;;;;;27.35;18.20;;;12.20;99.90;;;;;;4976804;28;20141;-67
2023/04/09 10:18:47;;;;;;;25.38;16.98;;;12.30;99.90;;;;;;4976633;28;20051;-67
2023/04/09 10:21:23;;;;;;;25.10;16.85;;;12.30;99.90;;;;;;4977079;28;20065;-67
2023/04/09 10:23:49;;;;;;;24.80;16.48;;;12.30;99.90;;;;;;4976921;28;20047;-67
2023/04/09 10:26:17;;;;;;;26.58;17.08;;;12.40;99.90;;;;;;4959229;28;20046;-67
2023/04/09 10:28:43;;;;;;;24.35;16.35;;;12.50;99.90;;;;;;4976964;28;20381;-67
2023/04/09 10:31:10;;;;;;;25.48;16.80;;;12.50;99.90;;;;;;4976456;28;20081;-67
2023/04/09 10:33:42;;;;;;;25.73;17.23;;;12.60;99.90;;;;;;4943430;28;20497;-67
2023/04/09 10:36:12;;;;;;;27.08;17.75;;;12.60;99.90;;;;;;4960140;28;20054;-67
2023/04/09 10:38:39;;;;;;;24.95;17.35;;;12.60;99.90;;;;;;4976318;28;20126;-69
2023/04/09 10:41:21;;;;;;;22.90;15.75;;;12.70;99.90;;;;;;4976308;28;20125;-67
2023/04/09 10:43:47;;;;;;;25.70;17.35;;;12.70;99.90;;;;;;4977122;28;20432;-67
2023/04/09 10:46:30;;;;;;;23.95;16.95;;;12.80;99.90;;;;;;4959303;28;20039;-67
2023/04/09 10:49:15;;;;;;;26.98;17.10;;;12.80;99.90;;;;;;4958841;28;20082;-67
2023/04/09 10:51:46;;;;;;;23.80;16.33;;;12.80;99.90;;;;;;4976225;28;20053;-67
2023/04/09 10:54:34;;;;;;;23.38;15.40;;;12.80;99.90;;;;;;4976130;28;20050;-66
2023/04/09 10:57:21;;;;;;;23.58;16.17;;;12.80;99.90;;;;;;4976159;28;20098;-67
2023/04/09 10:59:46;;;;;;;25.55;17.05;;;12.80;99.90;;;;;;4976184;28;20554;-67
2023/04/09 11:02:31;;;;;;;25.42;16.65;;;12.80;99.90;;;;;;4975903;28;20183;-67
2023/04/09 11:05:18;;;;;;;25.17;16.25;;;12.90;99.90;;;;;;4976849;28;20154;-67
2023/04/09 11:07:50;;;;;;;21.75;15.32;;;13.00;99.90;;;;;;4975936;28;20046;-67
2023/04/09 11:10:16;;;;;;;24.40;15.75;;;13.10;99.90;;;;;;4976745;28;20097;-67
2023/04/09 11:12:42;;;;;;;22.40;14.52;;;13.10;99.90;;;;;;4975880;28;20054;-68
2023/04/09 11:15:18;;;;;;;20.95;14.90;;;13.20;99.90;;;;;;4976356;28;20077;-67
2023/04/09 11:17:47;;;;;;;21.83;14.18;;;13.30;99.90;;;;;;4976629;28;20117;-67
2023/04/09 11:20:16;;;;;;;20.52;14.50;;;13.40;99.90;;;;;;4975855;28;20161;-67
2023/04/09 11:22:42;;;;;;;24.40;14.70;;;13.40;99.90;;;;;;4958707;28;20050;-67
2023/04/09 11:25:07;;;;;;;22.77;14.30;;;13.50;99.90;;;;;;4958476;28;20572;-67
2023/04/09 11:27:37;;;;;;;20.42;13.70;;;13.50;99.90;;;;;;4958297;28;20050;-67
2023/04/09 11:30:05;;;;;;;22.00;14.65;;;13.60;99.90;;;;;;4958866;28;20051;-67
2023/04/09 11:32:31;;;;;;;23.02;14.65;;;13.60;99.90;;;;;;4975506;28;20484;-67
2023/04/09 11:34:57;;;;;;;23.63;14.85;;;13.60;99.90;;;;;;4975739;28;20042;-67
2023/04/09 11:37:23;;;;;;;21.00;14.38;;;13.50;99.90;;;;;;4975456;28;20090;-67
2023/04/09 11:39:53;;;;;;;21.20;13.57;;;13.50;99.90;;;;;;4975304;28;20049;-67
2023/04/09 11:42:19;;;;;;;21.35;14.75;;;13.50;99.90;;;;;;4975952;28;20072;-67
2023/04/09 11:44:45;;;;;;;21.10;14.00;;;13.50;99.90;;;;;;4975332;28;20055;-67
2023/04/09 11:47:13;;;;;;;23.30;15.30;;;13.50;99.90;;;;;;4975236;28;20149;-67
2023/04/09 11:49:39;;;;;;;23.00;14.90;;;13.60;99.90;;;;;;4975783;28;20055;-67
2023/04/09 11:52:05;;;;;;;19.50;14.02;;;13.60;99.90;;;;;;4975184;28;20051;-67
2023/04/09 11:54:34;;;;;;;18.33;12.60;;;13.70;99.90;;;;;;4957977;28;20046;-67
2023/04/09 11:57:02;;;;;;;19.85;12.68;;;13.70;99.90;;;;;;4958463;28;20462;-67
2023/04/09 11:59:28;;;;;;;16.70;12.38;;;13.60;99.90;;;;;;4975308;28;20067;-67
2023/04/09 12:01:56;;;;;;;19.83;13.05;;;13.70;99.90;;;;;;4975081;28;20409;-67
2023/04/09 12:04:22;;;;;;;19.00;12.50;;;13.70;99.90;;;;;;4974967;28;20113;-66
2023/04/09 12:06:48;;;;;;;20.08;13.48;;;13.80;99.90;;;;;;4974985;28;20047;-67
2023/04/09 12:09:15;;;;;;;17.92;12.98;;;13.90;99.90;;;;;;4974812;28;20105;-67
2023/04/09 12:11:44;;;;;;;18.73;13.25;;;13.90;99.90;;;;;;4974983;28;20054;-67
2023/04/09 12:14:15;;;;;;;19.35;12.82;;;14.00;99.90;;;;;;4974923;28;20055;-66
2023/04/09 12:16:42;;;;;;;17.85;12.18;;;14.10;99.90;;;;;;4974915;28;20042;-67
2023/04/09 12:19:12;;;;;;;16.42;11.90;;;14.10;99.90;;;;;;4957794;28;20043;-66
2023/04/09 12:21:48;;;;;;;18.13;12.23;;;14.20;99.90;;;;;;4958131;28;20046;-66
2023/04/09 12:24:15;;;;;;;15.82;11.00;;;14.30;99.90;;;;;;4958702;28;20109;-66
2023/04/09 12:26:42;;;;;;;16.73;11.25;;;14.40;99.90;;;;;;4974854;28;20051;-67
2023/04/09 12:29:07;;;;;;;17.10;11.48;;;14.40;99.90;;;;;;4974648;28;20051;-67
2023/04/09 12:31:33;;;;;;;16.10;10.52;;;14.50;99.90;;;;;;4975733;28;20049;-67
2023/04/09 12:33:59;;;;;;;16.13;10.98;;;14.60;99.90;;;;;;4978751;28;20045;-67
2023/04/09 12:36:25;;;;;;;15.73;10.43;;;14.70;99.90;;;;;;4979227;28;20524;-66